sensor_id;sensor_type;location;lat;lon;timestamp;P1;durP1;ratioP1;P2;durP2;ratioP2
69207;SDS011;56321;47.662;8.878;2022-10-16T00:01:20;4.85;;;1.23;;
69207;SDS011;56321;47.662;8.878;2022-10-16T00:03:47;5.85;;;1.20;;
69207;SDS011;56321;47.662;8.878;2022-10-16T00:06:14;5.53;;;1.13;;
69207;SDS011;56321;47.662;8.878;2022-10-16T00:08:41;5.47;;;1.13;;
69207;SDS011;56321;47.662;8.878;2022-10-16T00:11:08;5.47;;;1.30;;
69207;SDS011;56321;47.662;8.878;2022-10-16T00:13:57;5.83;;;1.30;;
69207;SDS011;56321;47.662;8.878;2022-10-16T00:16:24;4.97;;;1.20;;
69207;SDS011;56321;47.662;8.878;2022-10-16T00:18:50;6.50;;;1.60;;
69207;SDS011;56321;47.662;8.878;2022-10-16T00:21:17;6.27;;;1.47;;
69207;SDS011;56321;47.662;8.878;2022-10-16T00:23:44;7.13;;;1.40;;
69207;SDS011;56321;47.662;8.878;2022-10-16T00:26:11;7.70;;;1.30;;
69207;SDS011;56321;47.662;8.878;2022-10-16T00:28:40;5.63;;;0.98;;
69207;SDS011;56321;47.662;8.878;2022-10-16T00:31:06;5.80;;;1.33;;
69207;SDS011;56321;47.662;8.878;2022-10-16T00:33:33;5.25;;;1.10;;
69207;SDS011;56321;47.662;8.878;2022-10-16T00:36:00;3.92;;;0.80;;
69207;SDS011;56321;47.662;8.878;2022-10-16T00:38:26;5.33;;;1.20;;
69207;SDS011;56321;47.662;8.878;2022-10-16T00:40:52;6.80;;;1.25;;
69207;SDS011;56321;47.662;8.878;2022-10-16T00:46:04;5.10;;;1.10;;
69207;SDS011;56321;47.662;8.878;2022-10-16T00:48:35;7.40;;;1.10;;
69207;SDS011;56321;47.662;8.878;2022-10-16T00:51:01;5.50;;;1.30;;
69207;SDS011;56321;47.662;8.878;2022-10-16T00:53:27;5.40;;;1.50;;
69207;SDS011;56321;47.662;8.878;2022-10-16T00:55:53;6.57;;;1.30;;
69207;SDS011;56321;47.662;8.878;2022-10-16T00:58:18;9.48;;;2.80;;
69207;SDS011;56321;47.662;8.878;2022-10-16T01:00:45;6.60;;;1.30;;
69207;SDS011;56321;47.662;8.878;2022-10-16T01:03:24;6.30;;;1.60;;
69207;SDS011;56321;47.662;8.878;2022-10-16T01:08:53;7.28;;;1.52;;
69207;SDS011;56321;47.662;8.878;2022-10-16T01:11:27;6.40;;;1.43;;
69207;SDS011;56321;47.662;8.878;2022-10-16T01:13:58;5.55;;;1.40;;
69207;SDS011;56321;47.662;8.878;2022-10-16T01:19:04;5.95;;;1.30;;
69207;SDS011;56321;47.662;8.878;2022-10-16T01:21:36;5.80;;;1.27;;
69207;SDS011;56321;47.662;8.878;2022-10-16T01:24:09;5.43;;;1.43;;
69207;SDS011;56321;47.662;8.878;2022-10-16T01:29:34;7.40;;;1.55;;
69207;SDS011;56321;47.662;8.878;2022-10-16T01:32:12;4.68;;;1.30;;
69207;SDS011;56321;47.662;8.878;2022-10-16T01:34:53;5.82;;;1.42;;
69207;SDS011;56321;47.662;8.878;2022-10-16T01:37:33;9.13;;;1.43;;
69207;SDS011;56321;47.662;8.878;2022-10-16T01:40:02;7.22;;;1.60;;
69207;SDS011;56321;47.662;8.878;2022-10-16T01:42:36;5.72;;;1.80;;
69207;SDS011;56321;47.662;8.878;2022-10-16T01:45:06;6.25;;;1.50;;
69207;SDS011;56321;47.662;8.878;2022-10-16T01:47:33;5.65;;;1.70;;
69207;SDS011;56321;47.662;8.878;2022-10-16T01:50:01;6.93;;;1.50;;
69207;SDS011;56321;47.662;8.878;2022-10-16T01:52:29;7.15;;;1.70;;
69207;SDS011;56321;47.662;8.878;2022-10-16T01:54:58;5.53;;;1.42;;
69207;SDS011;56321;47.662;8.878;2022-10-16T01:57:27;6.40;;;1.70;;
69207;SDS011;56321;47.662;8.878;2022-10-16T01:59:56;6.03;;;2.00;;
69207;SDS011;56321;47.662;8.878;2022-10-16T02:02:26;9.07;;;2.10;;
69207;SDS011;56321;47.662;8.878;2022-10-16T02:04:54;6.78;;;1.83;;
69207;SDS011;56321;47.662;8.878;2022-10-16T02:07:26;6.57;;;1.90;;
69207;SDS011;56321;47.662;8.878;2022-10-16T02:09:52;7.57;;;2.10;;
69207;SDS011;56321;47.662;8.878;2022-10-16T02:12:31;7.10;;;2.20;;
69207;SDS011;56321;47.662;8.878;2022-10-16T02:14:59;5.70;;;2.13;;
69207;SDS011;56321;47.662;8.878;2022-10-16T02:17:24;7.88;;;2.40;;
69207;SDS011;56321;47.662;8.878;2022-10-16T02:19:51;6.65;;;1.90;;
69207;SDS011;56321;47.662;8.878;2022-10-16T02:22:27;7.00;;;2.43;;
69207;SDS011;56321;47.662;8.878;2022-10-16T02:27:36;8.30;;;2.60;;
69207;SDS011;56321;47.662;8.878;2022-10-16T02:30:07;9.25;;;2.60;;
69207;SDS011;56321;47.662;8.878;2022-10-16T02:32:39;6.75;;;2.38;;
69207;SDS011;56321;47.662;8.878;2022-10-16T02:35:07;8.47;;;2.40;;
69207;SDS011;56321;47.662;8.878;2022-10-16T02:37:33;7.82;;;2.40;;
69207;SDS011;56321;47.662;8.878;2022-10-16T02:39:59;7.40;;;2.33;;
69207;SDS011;56321;47.662;8.878;2022-10-16T02:42:29;7.68;;;2.42;;
69207;SDS011;56321;47.662;8.878;2022-10-16T02:44:58;8.70;;;2.77;;
69207;SDS011;56321;47.662;8.878;2022-10-16T02:47:24;6.30;;;2.25;;
69207;SDS011;56321;47.662;8.878;2022-10-16T02:49:50;6.80;;;2.33;;
69207;SDS011;56321;47.662;8.878;2022-10-16T02:52:15;6.73;;;2.17;;
69207;SDS011;56321;47.662;8.878;2022-10-16T02:54:40;6.13;;;2.05;;
69207;SDS011;56321;47.662;8.878;2022-10-16T02:57:06;9.33;;;2.53;;
69207;SDS011;56321;47.662;8.878;2022-10-16T02:59:31;6.57;;;2.20;;
69207;SDS011;56321;47.662;8.878;2022-10-16T03:01:56;6.37;;;2.07;;
69207;SDS011;56321;47.662;8.878;2022-10-16T03:04:22;7.17;;;1.90;;
69207;SDS011;56321;47.662;8.878;2022-10-16T03:06:47;6.73;;;1.70;;
69207;SDS011;56321;47.662;8.878;2022-10-16T03:09:12;6.13;;;1.57;;
69207;SDS011;56321;47.662;8.878;2022-10-16T03:11:38;8.75;;;1.85;;
69207;SDS011;56321;47.662;8.878;2022-10-16T03:14:03;5.57;;;1.40;;
69207;SDS011;56321;47.662;8.878;2022-10-16T03:16:28;4.93;;;1.40;;
69207;SDS011;56321;47.662;8.878;2022-10-16T03:18:54;6.70;;;1.63;;
69207;SDS011;56321;47.662;8.878;2022-10-16T03:21:19;8.27;;;1.60;;
69207;SDS011;56321;47.662;8.878;2022-10-16T03:23:44;7.20;;;1.43;;
69207;SDS011;56321;47.662;8.878;2022-10-16T03:26:10;5.47;;;1.50;;
69207;SDS011;56321;47.662;8.878;2022-10-16T03:28:35;7.23;;;1.73;;
69207;SDS011;56321;47.662;8.878;2022-10-16T03:31:00;5.13;;;1.60;;
69207;SDS011;56321;47.662;8.878;2022-10-16T03:33:25;6.33;;;1.30;;
69207;SDS011;56321;47.662;8.878;2022-10-16T03:35:52;6.90;;;1.50;;
69207;SDS011;56321;47.662;8.878;2022-10-16T03:38:18;5.88;;;1.40;;
69207;SDS011;56321;47.662;8.878;2022-10-16T03:40:44;5.57;;;1.40;;
69207;SDS011;56321;47.662;8.878;2022-10-16T03:43:09;4.10;;;1.17;;
69207;SDS011;56321;47.662;8.878;2022-10-16T03:45:34;6.13;;;1.23;;
69207;SDS011;56321;47.662;8.878;2022-10-16T03:48:00;8.00;;;1.50;;
69207;SDS011;56321;47.662;8.878;2022-10-16T03:50:25;7.40;;;1.67;;
69207;SDS011;56321;47.662;8.878;2022-10-16T03:52:50;7.83;;;1.30;;
69207;SDS011;56321;47.662;8.878;2022-10-16T03:55:16;4.60;;;1.27;;
69207;SDS011;56321;47.662;8.878;2022-10-16T03:57:41;5.87;;;1.40;;
69207;SDS011;56321;47.662;8.878;2022-10-16T04:00:06;6.10;;;1.80;;
69207;SDS011;56321;47.662;8.878;2022-10-16T04:02:32;6.35;;;1.90;;
69207;SDS011;56321;47.662;8.878;2022-10-16T04:04:57;6.67;;;1.50;;
69207;SDS011;56321;47.662;8.878;2022-10-16T04:07:23;7.70;;;2.00;;
69207;SDS011;56321;47.662;8.878;2022-10-16T04:09:48;7.60;;;1.93;;
69207;SDS011;56321;47.662;8.878;2022-10-16T04:12:13;8.30;;;2.40;;
69207;SDS011;56321;47.662;8.878;2022-10-16T04:14:39;8.40;;;2.53;;
69207;SDS011;56321;47.662;8.878;2022-10-16T04:17:04;7.97;;;2.40;;
69207;SDS011;56321;47.662;8.878;2022-10-16T04:19:29;8.87;;;2.40;;
69207;SDS011;56321;47.662;8.878;2022-10-16T04:21:55;6.90;;;2.37;;
69207;SDS011;56321;47.662;8.878;2022-10-16T04:24:20;7.03;;;2.37;;
69207;SDS011;56321;47.662;8.878;2022-10-16T04:26:45;9.60;;;2.40;;
69207;SDS011;56321;47.662;8.878;2022-10-16T04:29:11;7.30;;;2.30;;
69207;SDS011;56321;47.662;8.878;2022-10-16T04:31:36;7.93;;;2.27;;
69207;SDS011;56321;47.662;8.878;2022-10-16T04:34:01;8.23;;;2.17;;
69207;SDS011;56321;47.662;8.878;2022-10-16T04:36:27;15.17;;;2.97;;
69207;SDS011;56321;47.662;8.878;2022-10-16T04:38:52;8.17;;;2.50;;
69207;SDS011;56321;47.662;8.878;2022-10-16T04:41:17;6.97;;;1.90;;
69207;SDS011;56321;47.662;8.878;2022-10-16T04:43:43;7.27;;;1.73;;
69207;SDS011;56321;47.662;8.878;2022-10-16T04:46:08;7.90;;;2.07;;
69207;SDS011;56321;47.662;8.878;2022-10-16T04:48:35;6.53;;;1.67;;
69207;SDS011;56321;47.662;8.878;2022-10-16T04:51:00;6.57;;;1.52;;
69207;SDS011;56321;47.662;8.878;2022-10-16T04:53:25;7.30;;;1.43;;
69207;SDS011;56321;47.662;8.878;2022-10-16T04:55:51;5.10;;;1.30;;
69207;SDS011;56321;47.662;8.878;2022-10-16T04:58:16;7.63;;;1.43;;
69207;SDS011;56321;47.662;8.878;2022-10-16T05:00:42;6.03;;;1.30;;
69207;SDS011;56321;47.662;8.878;2022-10-16T05:03:07;6.28;;;1.27;;
69207;SDS011;56321;47.662;8.878;2022-10-16T05:05:34;5.20;;;1.10;;
69207;SDS011;56321;47.662;8.878;2022-10-16T05:08:00;6.20;;;1.13;;
69207;SDS011;56321;47.662;8.878;2022-10-16T05:10:26;5.88;;;1.30;;
69207;SDS011;56321;47.662;8.878;2022-10-16T05:12:51;6.60;;;1.67;;
69207;SDS011;56321;47.662;8.878;2022-10-16T05:15:17;9.23;;;1.63;;
69207;SDS011;56321;47.662;8.878;2022-10-16T05:17:43;6.28;;;1.75;;
69207;SDS011;56321;47.662;8.878;2022-10-16T05:20:09;5.95;;;2.00;;
69207;SDS011;56321;47.662;8.878;2022-10-16T05:22:34;7.23;;;2.47;;
69207;SDS011;56321;47.662;8.878;2022-10-16T05:25:00;9.17;;;3.10;;
69207;SDS011;56321;47.662;8.878;2022-10-16T05:27:25;7.40;;;2.85;;
69207;SDS011;56321;47.662;8.878;2022-10-16T05:29:51;10.03;;;3.00;;
69207;SDS011;56321;47.662;8.878;2022-10-16T05:32:17;7.67;;;2.53;;
69207;SDS011;56321;47.662;8.878;2022-10-16T05:34:43;7.68;;;2.47;;
69207;SDS011;56321;47.662;8.878;2022-10-16T05:37:10;7.15;;;2.47;;
69207;SDS011;56321;47.662;8.878;2022-10-16T05:39:36;6.70;;;2.17;;
69207;SDS011;56321;47.662;8.878;2022-10-16T05:42:02;7.00;;;2.20;;
69207;SDS011;56321;47.662;8.878;2022-10-16T05:44:28;6.43;;;2.10;;
69207;SDS011;56321;47.662;8.878;2022-10-16T05:46:54;6.00;;;1.83;;
69207;SDS011;56321;47.662;8.878;2022-10-16T05:49:19;5.53;;;1.85;;
69207;SDS011;56321;47.662;8.878;2022-10-16T05:51:45;7.03;;;1.97;;
69207;SDS011;56321;47.662;8.878;2022-10-16T05:54:10;6.70;;;2.10;;
69207;SDS011;56321;47.662;8.878;2022-10-16T05:56:36;6.07;;;2.10;;
69207;SDS011;56321;47.662;8.878;2022-10-16T05:59:02;7.50;;;2.13;;
69207;SDS011;56321;47.662;8.878;2022-10-16T06:01:28;7.07;;;2.30;;
69207;SDS011;56321;47.662;8.878;2022-10-16T06:03:54;7.07;;;2.17;;
69207;SDS011;56321;47.662;8.878;2022-10-16T06:06:20;7.13;;;2.23;;
69207;SDS011;56321;47.662;8.878;2022-10-16T06:08:48;6.20;;;2.00;;
69207;SDS011;56321;47.662;8.878;2022-10-16T06:11:15;7.20;;;2.23;;
69207;SDS011;56321;47.662;8.878;2022-10-16T06:13:42;7.65;;;2.35;;
69207;SDS011;56321;47.662;8.878;2022-10-16T06:16:08;8.48;;;2.70;;
69207;SDS011;56321;47.662;8.878;2022-10-16T06:18:35;8.77;;;2.90;;
69207;SDS011;56321;47.662;8.878;2022-10-16T06:21:06;9.87;;;2.90;;
69207;SDS011;56321;47.662;8.878;2022-10-16T06:23:35;9.32;;;2.95;;
69207;SDS011;56321;47.662;8.878;2022-10-16T06:26:10;8.97;;;3.17;;
69207;SDS011;56321;47.662;8.878;2022-10-16T06:28:37;8.57;;;3.50;;
69207;SDS011;56321;47.662;8.878;2022-10-16T06:31:04;7.47;;;3.20;;
69207;SDS011;56321;47.662;8.878;2022-10-16T06:33:31;8.27;;;3.15;;
69207;SDS011;56321;47.662;8.878;2022-10-16T06:36:03;6.83;;;2.87;;
69207;SDS011;56321;47.662;8.878;2022-10-16T06:38:30;7.45;;;2.70;;
69207;SDS011;56321;47.662;8.878;2022-10-16T06:40:56;7.22;;;2.70;;
69207;SDS011;56321;47.662;8.878;2022-10-16T06:43:22;6.80;;;2.60;;
69207;SDS011;56321;47.662;8.878;2022-10-16T06:45:51;6.57;;;2.17;;
69207;SDS011;56321;47.662;8.878;2022-10-16T06:48:17;6.40;;;2.40;;
69207;SDS011;56321;47.662;8.878;2022-10-16T06:50:43;6.27;;;2.37;;
69207;SDS011;56321;47.662;8.878;2022-10-16T06:53:08;6.57;;;2.37;;
69207;SDS011;56321;47.662;8.878;2022-10-16T06:55:33;8.85;;;2.95;;
69207;SDS011;56321;47.662;8.878;2022-10-16T06:57:59;7.47;;;2.80;;
69207;SDS011;56321;47.662;8.878;2022-10-16T07:00:24;6.97;;;2.70;;
69207;SDS011;56321;47.662;8.878;2022-10-16T07:02:50;6.23;;;2.30;;
69207;SDS011;56321;47.662;8.878;2022-10-16T07:05:15;6.10;;;2.63;;
69207;SDS011;56321;47.662;8.878;2022-10-16T07:07:41;6.57;;;2.42;;
69207;SDS011;56321;47.662;8.878;2022-10-16T07:10:07;7.43;;;2.77;;
69207;SDS011;56321;47.662;8.878;2022-10-16T07:12:32;8.32;;;2.67;;
69207;SDS011;56321;47.662;8.878;2022-10-16T07:14:58;7.50;;;2.40;;
69207;SDS011;56321;47.662;8.878;2022-10-16T07:17:24;7.72;;;3.10;;
69207;SDS011;56321;47.662;8.878;2022-10-16T07:19:49;8.20;;;3.33;;
69207;SDS011;56321;47.662;8.878;2022-10-16T07:22:17;9.90;;;3.33;;
69207;SDS011;56321;47.662;8.878;2022-10-16T07:24:43;9.67;;;3.07;;
69207;SDS011;56321;47.662;8.878;2022-10-16T07:27:09;9.43;;;4.00;;
69207;SDS011;56321;47.662;8.878;2022-10-16T07:29:34;8.10;;;3.47;;
69207;SDS011;56321;47.662;8.878;2022-10-16T07:32:01;9.23;;;3.37;;
69207;SDS011;56321;47.662;8.878;2022-10-16T07:34:26;7.80;;;3.23;;
69207;SDS011;56321;47.662;8.878;2022-10-16T07:36:52;8.02;;;3.97;;
69207;SDS011;56321;47.662;8.878;2022-10-16T07:39:17;9.73;;;4.00;;
69207;SDS011;56321;47.662;8.878;2022-10-16T07:41:43;7.30;;;3.40;;
69207;SDS011;56321;47.662;8.878;2022-10-16T07:44:08;8.13;;;3.92;;
69207;SDS011;56321;47.662;8.878;2022-10-16T07:46:34;8.43;;;3.77;;
69207;SDS011;56321;47.662;8.878;2022-10-16T07:49:01;7.32;;;3.70;;
69207;SDS011;56321;47.662;8.878;2022-10-16T07:51:27;9.20;;;4.10;;
69207;SDS011;56321;47.662;8.878;2022-10-16T07:53:52;7.97;;;3.90;;
69207;SDS011;56321;47.662;8.878;2022-10-16T07:56:18;9.52;;;3.90;;
69207;SDS011;56321;47.662;8.878;2022-10-16T07:58:45;7.60;;;3.93;;
69207;SDS011;56321;47.662;8.878;2022-10-16T08:01:12;7.55;;;3.22;;
69207;SDS011;56321;47.662;8.878;2022-10-16T08:03:41;12.03;;;3.60;;
69207;SDS011;56321;47.662;8.878;2022-10-16T08:06:10;9.98;;;4.22;;
69207;SDS011;56321;47.662;8.878;2022-10-16T08:08:35;8.30;;;3.83;;
69207;SDS011;56321;47.662;8.878;2022-10-16T08:11:00;10.63;;;6.40;;
69207;SDS011;56321;47.662;8.878;2022-10-16T08:13:28;8.70;;;5.50;;
69207;SDS011;56321;47.662;8.878;2022-10-16T08:15:54;8.93;;;5.25;;
69207;SDS011;56321;47.662;8.878;2022-10-16T08:18:20;9.13;;;5.10;;
69207;SDS011;56321;47.662;8.878;2022-10-16T08:20:45;8.70;;;5.03;;
69207;SDS011;56321;47.662;8.878;2022-10-16T08:23:11;13.10;;;4.60;;
69207;SDS011;56321;47.662;8.878;2022-10-16T08:25:38;10.15;;;5.00;;
69207;SDS011;56321;47.662;8.878;2022-10-16T08:28:04;8.43;;;3.80;;
69207;SDS011;56321;47.662;8.878;2022-10-16T08:30:34;7.90;;;4.13;;
69207;SDS011;56321;47.662;8.878;2022-10-16T08:33:00;7.03;;;3.63;;
69207;SDS011;56321;47.662;8.878;2022-10-16T08:35:26;8.23;;;3.90;;
69207;SDS011;56321;47.662;8.878;2022-10-16T08:37:52;8.80;;;3.33;;
69207;SDS011;56321;47.662;8.878;2022-10-16T08:50:32;7.30;;;3.90;;
69207;SDS011;56321;47.662;8.878;2022-10-16T08:53:03;7.63;;;4.03;;
69207;SDS011;56321;47.662;8.878;2022-10-16T08:58:05;8.65;;;3.92;;
69207;SDS011;56321;47.662;8.878;2022-10-16T09:00:37;7.43;;;3.65;;
69207;SDS011;56321;47.662;8.878;2022-10-16T09:06:36;10.90;;;3.30;;
69207;SDS011;56321;47.662;8.878;2022-10-16T09:09:13;7.30;;;3.50;;
69207;SDS011;56321;47.662;8.878;2022-10-16T09:11:53;6.90;;;3.30;;
69207;SDS011;56321;47.662;8.878;2022-10-16T09:14:31;7.32;;;3.78;;
69207;SDS011;56321;47.662;8.878;2022-10-16T09:20:10;7.97;;;3.92;;
69207;SDS011;56321;47.662;8.878;2022-10-16T09:22:42;7.18;;;3.40;;
69207;SDS011;56321;47.662;8.878;2022-10-16T09:25:12;7.30;;;3.50;;
69207;SDS011;56321;47.662;8.878;2022-10-16T09:27:40;8.40;;;3.63;;
69207;SDS011;56321;47.662;8.878;2022-10-16T09:30:12;7.27;;;3.70;;
69207;SDS011;56321;47.662;8.878;2022-10-16T09:32:39;30.52;;;20.30;;
69207;SDS011;56321;47.662;8.878;2022-10-16T09:35:09;8.88;;;4.85;;
69207;SDS011;56321;47.662;8.878;2022-10-16T09:37:42;8.40;;;3.78;;
69207;SDS011;56321;47.662;8.878;2022-10-16T09:40:13;6.78;;;3.67;;
69207;SDS011;56321;47.662;8.878;2022-10-16T09:43:24;6.70;;;3.63;;
69207;SDS011;56321;47.662;8.878;2022-10-16T09:46:19;6.78;;;4.20;;
69207;SDS011;56321;47.662;8.878;2022-10-16T09:48:54;6.68;;;4.63;;
69207;SDS011;56321;47.662;8.878;2022-10-16T09:51:23;6.65;;;4.35;;
69207;SDS011;56321;47.662;8.878;2022-10-16T09:56:35;6.80;;;4.27;;
69207;SDS011;56321;47.662;8.878;2022-10-16T09:59:08;6.43;;;3.63;;
69207;SDS011;56321;47.662;8.878;2022-10-16T10:01:38;6.47;;;4.32;;
69207;SDS011;56321;47.662;8.878;2022-10-16T10:04:16;6.43;;;3.67;;
69207;SDS011;56321;47.662;8.878;2022-10-16T10:06:49;5.88;;;3.65;;
69207;SDS011;56321;47.662;8.878;2022-10-16T10:09:23;5.93;;;3.23;;
69207;SDS011;56321;47.662;8.878;2022-10-16T10:12:00;6.80;;;3.78;;
69207;SDS011;56321;47.662;8.878;2022-10-16T10:19:38;6.25;;;3.15;;
69207;SDS011;56321;47.662;8.878;2022-10-16T10:32:38;6.20;;;3.30;;
69207;SDS011;56321;47.662;8.878;2022-10-16T10:35:22;7.10;;;3.65;;
69207;SDS011;56321;47.662;8.878;2022-10-16T10:38:00;6.20;;;3.20;;
69207;SDS011;56321;47.662;8.878;2022-10-16T10:46:56;6.35;;;3.17;;
69207;SDS011;56321;47.662;8.878;2022-10-16T10:55:00;5.85;;;3.70;;
69207;SDS011;56321;47.662;8.878;2022-10-16T11:03:27;6.20;;;4.05;;
69207;SDS011;56321;47.662;8.878;2022-10-16T11:06:06;6.43;;;4.03;;
69207;SDS011;56321;47.662;8.878;2022-10-16T11:08:36;6.38;;;4.63;;
69207;SDS011;56321;47.662;8.878;2022-10-16T11:11:17;7.10;;;4.43;;
69207;SDS011;56321;47.662;8.878;2022-10-16T11:14:24;6.93;;;4.47;;
69207;SDS011;56321;47.662;8.878;2022-10-16T11:16:56;6.47;;;4.85;;
69207;SDS011;56321;47.662;8.878;2022-10-16T11:19:37;6.38;;;4.10;;
69207;SDS011;56321;47.662;8.878;2022-10-16T11:22:39;7.00;;;4.72;;
69207;SDS011;56321;47.662;8.878;2022-10-16T11:25:13;6.13;;;4.40;;
69207;SDS011;56321;47.662;8.878;2022-10-16T11:30:19;6.95;;;3.70;;
69207;SDS011;56321;47.662;8.878;2022-10-16T11:32:54;6.40;;;3.30;;
69207;SDS011;56321;47.662;8.878;2022-10-16T11:38:03;6.07;;;3.00;;
69207;SDS011;56321;47.662;8.878;2022-10-16T11:40:34;6.80;;;2.90;;
69207;SDS011;56321;47.662;8.878;2022-10-16T11:43:28;6.53;;;3.00;;
69207;SDS011;56321;47.662;8.878;2022-10-16T11:46:02;5.47;;;2.58;;
69207;SDS011;56321;47.662;8.878;2022-10-16T11:48:36;4.95;;;2.20;;
69207;SDS011;56321;47.662;8.878;2022-10-16T11:51:27;5.17;;;2.37;;
69207;SDS011;56321;47.662;8.878;2022-10-16T11:54:08;4.95;;;2.10;;
69207;SDS011;56321;47.662;8.878;2022-10-16T11:57:01;5.93;;;2.50;;
69207;SDS011;56321;47.662;8.878;2022-10-16T12:05:25;5.50;;;2.17;;
69207;SDS011;56321;47.662;8.878;2022-10-16T12:08:12;5.28;;;2.60;;
69207;SDS011;56321;47.662;8.878;2022-10-16T12:10:41;6.78;;;2.33;;
69207;SDS011;56321;47.662;8.878;2022-10-16T12:18:29;5.77;;;2.40;;
69207;SDS011;56321;47.662;8.878;2022-10-16T12:20:56;4.80;;;2.10;;
69207;SDS011;56321;47.662;8.878;2022-10-16T12:23:24;5.97;;;2.30;;
69207;SDS011;56321;47.662;8.878;2022-10-16T12:25:54;5.22;;;1.67;;
69207;SDS011;56321;47.662;8.878;2022-10-16T12:28:22;5.10;;;1.98;;
69207;SDS011;56321;47.662;8.878;2022-10-16T12:30:58;5.82;;;2.10;;
69207;SDS011;56321;47.662;8.878;2022-10-16T12:33:26;5.65;;;2.03;;
69207;SDS011;56321;47.662;8.878;2022-10-16T12:35:54;4.80;;;2.07;;
69207;SDS011;56321;47.662;8.878;2022-10-16T12:38:21;6.47;;;1.88;;
69207;SDS011;56321;47.662;8.878;2022-10-16T12:41:04;4.43;;;1.95;;
69207;SDS011;56321;47.662;8.878;2022-10-16T12:43:45;4.40;;;1.80;;
69207;SDS011;56321;47.662;8.878;2022-10-16T12:48:38;5.77;;;1.50;;
69207;SDS011;56321;47.662;8.878;2022-10-16T12:53:58;4.50;;;1.50;;
69207;SDS011;56321;47.662;8.878;2022-10-16T12:59:31;5.07;;;1.70;;
69207;SDS011;56321;47.662;8.878;2022-10-16T13:02:26;5.28;;;1.60;;
69207;SDS011;56321;47.662;8.878;2022-10-16T13:05:09;6.07;;;1.40;;
69207;SDS011;56321;47.662;8.878;2022-10-16T13:08:04;5.20;;;1.45;;
69207;SDS011;56321;47.662;8.878;2022-10-16T13:10:50;4.85;;;1.65;;
69207;SDS011;56321;47.662;8.878;2022-10-16T13:18:50;4.70;;;1.37;;
69207;SDS011;56321;47.662;8.878;2022-10-16T13:21:22;6.10;;;1.48;;
69207;SDS011;56321;47.662;8.878;2022-10-16T13:23:58;5.15;;;1.63;;
69207;SDS011;56321;47.662;8.878;2022-10-16T13:26:49;4.38;;;1.58;;
69207;SDS011;56321;47.662;8.878;2022-10-16T13:29:22;4.82;;;1.63;;
69207;SDS011;56321;47.662;8.878;2022-10-16T13:31:47;5.27;;;1.70;;
69207;SDS011;56321;47.662;8.878;2022-10-16T13:34:14;5.80;;;1.97;;
69207;SDS011;56321;47.662;8.878;2022-10-16T13:36:48;5.38;;;1.88;;
69207;SDS011;56321;47.662;8.878;2022-10-16T13:39:23;5.28;;;1.98;;
69207;SDS011;56321;47.662;8.878;2022-10-16T13:42:15;5.85;;;2.10;;
69207;SDS011;56321;47.662;8.878;2022-10-16T13:44:52;5.95;;;1.80;;
69207;SDS011;56321;47.662;8.878;2022-10-16T13:49:58;5.97;;;1.80;;
69207;SDS011;56321;47.662;8.878;2022-10-16T13:52:28;5.50;;;1.63;;
69207;SDS011;56321;47.662;8.878;2022-10-16T13:54:54;5.00;;;1.60;;
69207;SDS011;56321;47.662;8.878;2022-10-16T13:57:21;4.53;;;1.30;;
69207;SDS011;56321;47.662;8.878;2022-10-16T13:59:48;5.72;;;1.40;;
69207;SDS011;56321;47.662;8.878;2022-10-16T14:02:35;4.13;;;1.30;;
69207;SDS011;56321;47.662;8.878;2022-10-16T14:05:00;5.47;;;1.30;;
69207;SDS011;56321;47.662;8.878;2022-10-16T14:07:29;4.18;;;1.27;;
69207;SDS011;56321;47.662;8.878;2022-10-16T14:10:00;4.63;;;1.47;;
69207;SDS011;56321;47.662;8.878;2022-10-16T14:12:28;4.88;;;1.27;;
69207;SDS011;56321;47.662;8.878;2022-10-16T14:14:54;4.90;;;1.52;;
69207;SDS011;56321;47.662;8.878;2022-10-16T14:17:22;4.27;;;1.13;;
69207;SDS011;56321;47.662;8.878;2022-10-16T14:19:53;4.50;;;1.40;;
69207;SDS011;56321;47.662;8.878;2022-10-16T14:24:52;4.68;;;1.20;;
69207;SDS011;56321;47.662;8.878;2022-10-16T14:27:26;3.70;;;1.10;;
69207;SDS011;56321;47.662;8.878;2022-10-16T14:30:05;4.00;;;1.10;;
69207;SDS011;56321;47.662;8.878;2022-10-16T14:32:33;4.33;;;0.80;;
69207;SDS011;56321;47.662;8.878;2022-10-16T14:34:59;3.78;;;1.05;;
69207;SDS011;56321;47.662;8.878;2022-10-16T14:37:25;4.67;;;0.90;;
69207;SDS011;56321;47.662;8.878;2022-10-16T14:39:52;4.70;;;1.20;;
69207;SDS011;56321;47.662;8.878;2022-10-16T14:42:19;4.47;;;0.80;;
69207;SDS011;56321;47.662;8.878;2022-10-16T14:44:49;4.80;;;1.10;;
69207;SDS011;56321;47.662;8.878;2022-10-16T14:47:20;4.15;;;0.80;;
69207;SDS011;56321;47.662;8.878;2022-10-16T14:49:49;4.17;;;1.00;;
69207;SDS011;56321;47.662;8.878;2022-10-16T14:52:16;4.20;;;1.00;;
69207;SDS011;56321;47.662;8.878;2022-10-16T14:54:41;5.87;;;1.03;;
69207;SDS011;56321;47.662;8.878;2022-10-16T14:57:15;4.80;;;0.82;;
69207;SDS011;56321;47.662;8.878;2022-10-16T14:59:43;3.75;;;1.00;;
69207;SDS011;56321;47.662;8.878;2022-10-16T15:02:20;6.30;;;1.20;;
69207;SDS011;56321;47.662;8.878;2022-10-16T15:05:11;5.50;;;1.10;;
69207;SDS011;56321;47.662;8.878;2022-10-16T15:07:45;3.92;;;1.02;;
69207;SDS011;56321;47.662;8.878;2022-10-16T15:10:12;4.45;;;1.10;;
69207;SDS011;56321;47.662;8.878;2022-10-16T15:12:38;5.80;;;1.17;;
69207;SDS011;56321;47.662;8.878;2022-10-16T15:17:48;4.88;;;1.30;;
69207;SDS011;56321;47.662;8.878;2022-10-16T15:20:26;5.85;;;1.65;;
69207;SDS011;56321;47.662;8.878;2022-10-16T15:22:52;6.72;;;1.40;;
69207;SDS011;56321;47.662;8.878;2022-10-16T15:28:00;4.75;;;1.27;;
69207;SDS011;56321;47.662;8.878;2022-10-16T15:30:27;5.18;;;1.30;;
69207;SDS011;56321;47.662;8.878;2022-10-16T15:32:52;5.30;;;2.00;;
69207;SDS011;56321;47.662;8.878;2022-10-16T15:35:18;6.30;;;3.40;;
69207;SDS011;56321;47.662;8.878;2022-10-16T15:37:43;5.47;;;2.30;;
69207;SDS011;56321;47.662;8.878;2022-10-16T15:40:10;5.63;;;1.60;;
69207;SDS011;56321;47.662;8.878;2022-10-16T15:42:35;5.15;;;1.50;;
69207;SDS011;56321;47.662;8.878;2022-10-16T15:45:01;5.43;;;1.97;;
69207;SDS011;56321;47.662;8.878;2022-10-16T15:47:26;7.10;;;3.23;;
69207;SDS011;56321;47.662;8.878;2022-10-16T15:49:52;6.67;;;2.77;;
69207;SDS011;56321;47.662;8.878;2022-10-16T15:52:17;6.50;;;2.25;;
69207;SDS011;56321;47.662;8.878;2022-10-16T15:54:43;8.80;;;5.10;;
69207;SDS011;56321;47.662;8.878;2022-10-16T15:57:08;9.47;;;5.13;;
69207;SDS011;56321;47.662;8.878;2022-10-16T15:59:33;7.07;;;3.63;;
69207;SDS011;56321;47.662;8.878;2022-10-16T16:01:59;5.88;;;2.03;;
69207;SDS011;56321;47.662;8.878;2022-10-16T16:04:24;5.17;;;1.37;;
69207;SDS011;56321;47.662;8.878;2022-10-16T16:06:49;5.40;;;1.30;;
69207;SDS011;56321;47.662;8.878;2022-10-16T16:09:15;8.43;;;1.20;;
69207;SDS011;56321;47.662;8.878;2022-10-16T16:11:40;4.60;;;1.03;;
69207;SDS011;56321;47.662;8.878;2022-10-16T16:14:06;4.25;;;1.15;;
69207;SDS011;56321;47.662;8.878;2022-10-16T16:16:32;4.83;;;1.27;;
69207;SDS011;56321;47.662;8.878;2022-10-16T16:19:03;5.20;;;1.08;;
69207;SDS011;56321;47.662;8.878;2022-10-16T16:21:29;4.72;;;1.23;;
69207;SDS011;56321;47.662;8.878;2022-10-16T16:23:55;7.07;;;1.23;;
69207;SDS011;56321;47.662;8.878;2022-10-16T16:26:22;4.70;;;1.30;;
69207;SDS011;56321;47.662;8.878;2022-10-16T16:28:52;5.53;;;1.15;;
69207;SDS011;56321;47.662;8.878;2022-10-16T16:31:19;6.32;;;1.20;;
69207;SDS011;56321;47.662;8.878;2022-10-16T16:33:44;4.95;;;1.00;;
69207;SDS011;56321;47.662;8.878;2022-10-16T16:36:10;5.37;;;1.17;;
69207;SDS011;56321;47.662;8.878;2022-10-16T16:38:36;7.33;;;1.20;;
69207;SDS011;56321;47.662;8.878;2022-10-16T16:41:14;4.60;;;1.10;;
69207;SDS011;56321;47.662;8.878;2022-10-16T16:43:40;3.97;;;1.00;;
69207;SDS011;56321;47.662;8.878;2022-10-16T16:46:06;5.60;;;1.20;;
69207;SDS011;56321;47.662;8.878;2022-10-16T16:48:32;4.22;;;0.88;;
69207;SDS011;56321;47.662;8.878;2022-10-16T16:51:07;4.80;;;1.10;;